createdAt,value
2022-12-25T00:02:46.961Z,17.30
2022-12-25T00:13:14.649Z,14.10
2022-12-25T00:23:42.448Z,13.60
2022-12-25T00:34:10.135Z,12.30
2022-12-25T00:44:37.944Z,13.60
2022-12-25T00:55:06.654Z,14.50
2022-12-25T01:05:34.214Z,12.40
2022-12-25T01:16:06.099Z,14.20
2022-12-25T01:26:33.793Z,11.30
2022-12-25T01:37:01.388Z,12.30
2022-12-25T01:47:29.146Z,11.30
2022-12-25T01:57:57.316Z,12.30
2022-12-25T02:08:26.274Z,11.70
2022-12-25T02:18:59.677Z,13.50
2022-12-25T02:29:31.830Z,11.30
2022-12-25T02:40:06.236Z,10.20
2022-12-25T02:50:51.807Z,11.30
2022-12-25T03:01:39.356Z,11.60
2022-12-25T03:12:15.375Z,11.40
2022-12-25T03:23:03.743Z,10.40
2022-12-25T03:33:46.681Z,10.60
2022-12-25T03:44:36.556Z,11.90
2022-12-25T03:55:27.434Z,12.60
2022-12-25T04:06:12.102Z,10.20
2022-12-25T04:16:57.522Z,10.80
2022-12-25T04:27:43.237Z,9.70
2022-12-25T04:38:10.936Z,10.00
2022-12-25T04:48:39.089Z,10.00
2022-12-25T04:59:06.679Z,11.70
2022-12-25T05:09:34.291Z,11.20
2022-12-25T05:20:02.243Z,12.30
2022-12-25T05:30:29.815Z,11.30
2022-12-25T05:40:57.376Z,15.10
2022-12-25T05:51:26.126Z,14.30
2022-12-25T06:01:54.114Z,11.10
2022-12-25T06:12:21.770Z,9.60
2022-12-25T06:22:49.376Z,15.60
2022-12-25T06:33:17.160Z,25.90
2022-12-25T06:43:45.208Z,57.90
2022-12-25T06:54:12.773Z,45.90
2022-12-25T07:04:43.072Z,31.60
2022-12-25T07:15:12.357Z,30.70
2022-12-25T07:25:39.969Z,23.20
2022-12-25T07:36:12.516Z,18.20
2022-12-25T07:46:40.691Z,21.00
2022-12-25T07:57:09.014Z,23.90
2022-12-25T08:07:36.978Z,24.20
2022-12-25T08:18:04.619Z,27.30
2022-12-25T08:28:33.561Z,33.40
2022-12-25T08:39:03.395Z,28.40
2022-12-25T08:49:31.174Z,34.00
2022-12-25T08:59:59.103Z,24.80
2022-12-25T09:10:26.694Z,23.30
2022-12-25T09:21:01.823Z,21.40
2022-12-25T09:31:29.505Z,22.10
2022-12-25T09:42:01.094Z,20.20
2022-12-25T09:52:38.819Z,19.80
2022-12-25T10:03:20.384Z,19.80
2022-12-25T10:14:01.920Z,16.80
2022-12-25T10:24:37.965Z,12.50
2022-12-25T10:35:05.871Z,10.80
2022-12-25T10:45:43.276Z,8.80
2022-12-25T10:56:19.536Z,7.80
2022-12-25T11:06:56.783Z,9.90
2022-12-25T11:17:26.742Z,9.50
2022-12-25T11:28:02.311Z,8.40
2022-12-25T11:38:30.167Z,7.70
2022-12-25T11:49:01.924Z,6.90
2022-12-25T11:59:36.172Z,7.90
2022-12-25T12:10:15.116Z,7.50
2022-12-25T12:20:43.032Z,7.00
2022-12-25T12:31:11.208Z,7.70
2022-12-25T12:41:49.669Z,7.20
2022-12-25T12:52:27.431Z,5.50
2022-12-25T13:03:19.164Z,4.60
2022-12-25T13:13:48.555Z,5.60
2022-12-25T13:24:24.207Z,5.20
2022-12-25T13:34:53.303Z,5.40
2022-12-25T13:45:26.755Z,5.30
2022-12-25T13:55:57.560Z,7.20
2022-12-25T14:06:29.233Z,9.60
2022-12-25T14:17:00.387Z,7.20
2022-12-25T14:27:30.517Z,6.30
2022-12-25T14:38:01.132Z,5.80
2022-12-25T14:48:30.437Z,6.40
2022-12-25T14:59:00.262Z,4.20
2022-12-25T15:09:30.171Z,4.20
2022-12-25T15:20:02.290Z,3.60
2022-12-25T15:30:30.548Z,3.40
2022-12-25T15:40:58.117Z,5.00
2022-12-25T15:51:26.112Z,3.40
2022-12-25T16:01:56.324Z,2.90
2022-12-25T16:12:24.106Z,2.50
2022-12-25T16:22:51.830Z,2.30
2022-12-25T16:33:19.418Z,2.60
2022-12-25T16:43:47.257Z,2.70
2022-12-25T16:54:15.259Z,2.50
2022-12-25T17:04:42.863Z,4.10
2022-12-25T17:15:12.567Z,3.30
2022-12-25T17:25:41.140Z,3.40
2022-12-25T17:36:12.282Z,3.70
2022-12-25T17:46:40.219Z,10.80
2022-12-25T17:57:07.963Z,5.60
2022-12-25T18:07:35.582Z,6.40
2022-12-25T18:18:03.215Z,4.90
2022-12-25T18:28:30.869Z,6.30
2022-12-25T18:38:59.215Z,4.10
2022-12-25T18:49:26.918Z,10.50
2022-12-25T18:59:54.809Z,7.40
2022-12-25T19:10:22.420Z,8.50
2022-12-25T19:20:49.916Z,9.50
2022-12-25T19:31:17.768Z,10.60
2022-12-25T19:41:45.548Z,13.00
2022-12-25T19:52:13.924Z,20.50
2022-12-25T20:02:41.492Z,15.00
2022-12-25T20:13:09.987Z,19.70
2022-12-25T20:23:37.587Z,22.20
2022-12-25T20:34:09.017Z,26.90
2022-12-25T20:44:36.688Z,25.00
2022-12-25T20:55:04.702Z,24.90
2022-12-25T21:05:32.689Z,22.10
2022-12-25T21:16:01.188Z,23.20
2022-12-25T21:36:55.768Z,22.10
2022-12-25T21:47:23.408Z,24.80
2022-12-25T21:57:50.824Z,21.30
2022-12-25T22:08:18.675Z,22.70
2022-12-25T22:19:03.729Z,23.40
2022-12-25T22:29:31.503Z,22.20
2022-12-25T22:40:01.328Z,23.10
2022-12-25T22:50:29.227Z,20.70
2022-12-25T23:00:56.843Z,22.90
2022-12-25T23:11:24.603Z,21.00
2022-12-25T23:22:24.507Z,22.90
2022-12-25T23:32:52.161Z,23.40
2022-12-25T23:43:19.725Z,23.00
2022-12-25T23:53:47.926Z,19.40
